Estación Meteorológica Peña el Pijo (Robertgarden) [ 10/22/18 08:11:27 CEST ]

Fecha Hora Presion(HPa) Temp (°C) Humedad % Rocio (°C) Viento ( m/s) Direccion Lluvia 1Hora(mm) Lluvia 24H(mm) LLuvia Total(mm)
2017-Nov-25 01:01:56 1011.800 3.9 54 -4.6         1468.01
2017-Nov-25 02:01:44 1011.600 2.2 57 -5.4         1468.01
2017-Nov-25 03:01:40 1011.800 1.8 60 -5.1         1468.01
2017-Nov-25 04:01:43 1011.600 2.3 61 -4.4         1468.01
2017-Nov-25 05:01:43 1011.400 3.4 61 -3.4         1468.01
2017-Nov-25 06:05:18 1011.300 4.5 61 -2.4         1468.01
2017-Nov-25 07:01:34 1011.100 5.4 58 -2.2         1468.01
2017-Nov-25 08:01:53 1011.300 4.9 58 -2.7         1468.01
2017-Nov-25 09:01:44 1011.500 5.1 59 -2.3         1468.01
2017-Nov-25 10:01:53 1011.400 6.8 58 -0.9         1468.01
2017-Nov-25 11:02:01 1011.100 12.4 46 1.0         1468.01
2017-Nov-25 12:01:55 1010.600 17.8 33 1.2         1468.01
2017-Nov-25 13:01:44 1010.100 18.3 32 1.3         1468.01
2017-Nov-25 14:01:47 1010.000 17.9 31 0.5 2.9 N     1468.01
2017-Nov-25 15:01:38 1010.400 16.3 33 -0.1         1468.01
2017-Nov-25 16:01:48 1010.300 15.9 33 -0.5 1.3 WNW     1468.01
2017-Nov-25 17:01:44 1010.600 14.9 34 -0.9         1468.01
2017-Nov-25 18:01:43 1011.200 13.9 35 -1.4         1468.01
2017-Nov-25 19:01:34 1011.900 13.0 36 -1.9         1468.01
2017-Nov-25 20:01:50 1012.000 12.3 39 -1.3         1468.01
2017-Nov-25 21:01:32 1012.100 11.8 41 -1.1         1468.01
2017-Nov-25 22:01:41 1012.200 11.9 41 -1.0         1468.01
2017-Nov-25 23:01:35 1012.500 12.5 43 0.2         1468.01

Temperatura Máxima:18°    Temperatura Mínima:
Presión Máxima:1012.500 Hpa    Presión Mínima:1010.000 Hpa


Volver